createdAt,value
2023-04-29T00:12:05.324Z,8.38
2023-04-29T00:14:39.813Z,3.83
2023-04-29T00:17:14.721Z,7.03
2023-04-29T00:19:59.445Z,6.40
2023-04-29T00:22:32.736Z,5.47
2023-04-29T00:25:05.259Z,6.60
2023-04-29T00:27:45.617Z,3.20
2023-04-29T00:30:22.641Z,3.03
2023-04-29T00:33:04.094Z,7.47
2023-04-29T00:35:42.462Z,3.08
2023-04-29T00:38:26.108Z,5.78
2023-04-29T00:41:03.446Z,4.03
2023-04-29T00:43:33.574Z,2.72
2023-04-29T00:46:09.835Z,2.42
2023-04-29T00:48:49.687Z,4.20
2023-04-29T00:51:21.414Z,2.33
2023-04-29T00:54:03.254Z,6.78
2023-04-29T00:56:35.902Z,8.23
2023-04-29T00:59:08.682Z,4.10
2023-04-29T01:01:51.771Z,4.75
2023-04-29T01:04:25.973Z,7.10
2023-04-29T01:07:25.460Z,3.95
2023-04-29T01:10:27.662Z,4.47
2023-04-29T01:13:15.603Z,3.92
2023-04-29T01:16:11.144Z,5.70
2023-04-29T01:19:15.940Z,11.65
2023-04-29T01:21:51.219Z,4.20
2023-04-29T01:24:31.056Z,2.45
2023-04-29T01:27:10.133Z,7.18
2023-04-29T01:30:23.510Z,2.50
2023-04-29T01:33:27.688Z,4.72
2023-04-29T01:36:18.655Z,5.25
2023-04-29T01:39:11.963Z,2.67
2023-04-29T01:42:11.380Z,2.67
2023-04-29T01:44:43.552Z,11.07
2023-04-29T01:47:18.950Z,3.65
2023-04-29T01:49:54.073Z,3.55
2023-04-29T01:52:24.896Z,4.45
2023-04-29T01:55:07.698Z,4.07
2023-04-29T01:57:57.329Z,4.97
2023-04-29T02:01:01.241Z,6.95
2023-04-29T02:03:34.661Z,5.78
2023-04-29T02:06:17.742Z,3.28
2023-04-29T02:09:03.564Z,4.93
2023-04-29T02:11:42.447Z,3.97
2023-04-29T02:14:31.856Z,4.35
2023-04-29T02:17:09.590Z,8.55
2023-04-29T02:19:48.887Z,4.82
2023-04-29T02:22:22.629Z,3.47
2023-04-29T02:24:56.984Z,6.40
2023-04-29T02:27:34.169Z,3.05
2023-04-29T02:30:15.148Z,4.60
2023-04-29T02:32:51.186Z,7.32
2023-04-29T02:35:26.946Z,2.15
2023-04-29T02:37:54.818Z,5.85
2023-04-29T02:40:21.808Z,2.75
2023-04-29T02:42:48.709Z,3.83
2023-04-29T02:45:15.819Z,4.68
2023-04-29T02:47:42.801Z,3.63
2023-04-29T02:50:10.086Z,5.75
2023-04-29T02:52:37.122Z,6.53
2023-04-29T02:55:04.315Z,3.50
2023-04-29T02:57:32.282Z,3.97
2023-04-29T02:59:59.568Z,3.17
2023-04-29T03:02:26.757Z,6.07
2023-04-29T03:04:58.100Z,8.55
2023-04-29T03:07:25.070Z,6.22
2023-04-29T03:09:52.938Z,4.07
2023-04-29T03:12:20.246Z,4.22
2023-04-29T03:14:47.446Z,3.92
2023-04-29T03:17:15.347Z,6.43
2023-04-29T03:19:43.180Z,3.78
2023-04-29T03:22:11.755Z,4.55
2023-04-29T03:24:40.350Z,4.35
2023-04-29T03:27:07.537Z,7.25
2023-04-29T03:29:34.514Z,6.32
2023-04-29T03:32:02.695Z,8.00
2023-04-29T03:34:30.138Z,7.95
2023-04-29T03:37:16.650Z,3.08
2023-04-29T03:39:51.683Z,3.38
2023-04-29T03:42:18.763Z,4.65
2023-04-29T03:44:45.851Z,2.45
2023-04-29T03:47:13.965Z,3.60
2023-04-29T03:49:41.441Z,6.40
2023-04-29T03:52:08.388Z,8.57
2023-04-29T03:54:35.607Z,5.25
2023-04-29T03:57:03.667Z,5.00
2023-04-29T03:59:30.852Z,2.88
2023-04-29T04:01:58.588Z,5.20
2023-04-29T04:04:26.478Z,6.47
2023-04-29T04:06:53.716Z,6.07
2023-04-29T04:09:25.324Z,5.13
2023-04-29T04:11:52.434Z,6.20
2023-04-29T04:14:20.242Z,2.95
2023-04-29T04:16:47.182Z,5.55
2023-04-29T04:19:15.091Z,4.90
2023-04-29T04:21:44.984Z,5.85
2023-04-29T04:24:12.151Z,7.45
2023-04-29T04:26:39.250Z,3.92
2023-04-29T04:29:18.325Z,2.75
2023-04-29T04:31:55.769Z,2.28
2023-04-29T04:34:23.637Z,2.90
2023-04-29T04:36:52.609Z,4.90
2023-04-29T04:39:19.719Z,4.20
2023-04-29T04:41:46.839Z,6.70
2023-04-29T04:44:14.497Z,4.45
2023-04-29T04:47:11.799Z,8.48
2023-04-29T04:49:58.554Z,3.97
2023-04-29T04:52:26.676Z,8.55
2023-04-29T04:55:02.657Z,3.63
2023-04-29T04:57:31.430Z,9.20
2023-04-29T05:00:01.780Z,5.22
2023-04-29T05:02:28.816Z,3.65
2023-04-29T05:04:56.210Z,5.18
2023-04-29T05:07:43.616Z,9.60
2023-04-29T05:10:32.983Z,3.97
2023-04-29T05:16:00.368Z,8.13
2023-04-29T05:18:36.625Z,7.65
2023-04-29T05:21:19.001Z,6.07
2023-04-29T05:24:07.563Z,5.20
2023-04-29T05:26:50.277Z,5.70
2023-04-29T05:29:38.411Z,7.03
2023-04-29T05:32:21.666Z,7.80
2023-04-29T05:35:00.751Z,4.45
2023-04-29T05:37:38.191Z,7.32
2023-04-29T05:40:34.207Z,5.13
2023-04-29T05:43:36.925Z,5.72
2023-04-29T05:46:20.984Z,6.50
2023-04-29T05:49:02.972Z,4.68
2023-04-29T05:51:40.971Z,6.65
2023-04-29T05:54:51.162Z,4.30
2023-04-29T05:57:41.607Z,4.70
2023-04-29T06:00:15.082Z,6.32
2023-04-29T06:02:59.166Z,4.93
2023-04-29T06:05:34.611Z,3.70
2023-04-29T06:08:34.514Z,3.35
2023-04-29T06:11:21.725Z,4.47
2023-04-29T06:13:57.355Z,5.32
2023-04-29T06:16:47.258Z,2.75
2023-04-29T06:19:46.162Z,3.92
2023-04-29T06:22:40.257Z,2.47
2023-04-29T06:25:35.659Z,2.35
2023-04-29T06:28:25.220Z,2.67
2023-04-29T06:30:55.738Z,2.60
2023-04-29T06:33:37.453Z,3.45
2023-04-29T06:39:46.457Z,2.13
2023-04-29T06:42:56.439Z,5.55
2023-04-29T06:46:22.497Z,2.35
2023-04-29T06:49:37.141Z,3.00
2023-04-29T06:52:57.576Z,3.58
2023-04-29T06:56:08.919Z,2.40
2023-04-29T06:59:06.489Z,5.20
2023-04-29T07:08:02.150Z,2.10
2023-04-29T07:11:07.798Z,5.75
2023-04-29T07:13:54.500Z,2.38
2023-04-29T07:16:55.532Z,3.85
2023-04-29T07:19:40.304Z,2.40
2023-04-29T07:22:20.888Z,3.95
2023-04-29T07:25:04.586Z,2.22
2023-04-29T07:27:54.906Z,2.92
2023-04-29T07:30:32.968Z,3.38
2023-04-29T07:33:05.036Z,4.05
2023-04-29T07:35:46.360Z,2.10
2023-04-29T07:38:25.789Z,2.85
2023-04-29T07:41:07.993Z,2.63
2023-04-29T07:43:47.544Z,3.75
2023-04-29T07:46:27.004Z,4.63
2023-04-29T07:49:25.656Z,3.92
2023-04-29T07:52:18.209Z,6.75
2023-04-29T07:54:55.948Z,2.47
2023-04-29T07:57:32.272Z,2.70
2023-04-29T08:00:18.168Z,6.40
2023-04-29T08:05:53.885Z,3.22
2023-04-29T08:08:49.598Z,2.35
2023-04-29T08:11:47.018Z,2.35
2023-04-29T08:14:31.966Z,4.32
2023-04-29T08:17:35.913Z,4.07
2023-04-29T08:20:12.346Z,4.80
2023-04-29T08:23:06.106Z,3.22
2023-04-29T08:26:07.306Z,2.75
2023-04-29T08:29:07.623Z,3.10
2023-04-29T08:34:53.378Z,2.92
2023-04-29T08:40:57.001Z,2.22
2023-04-29T08:43:35.737Z,2.60
2023-04-29T08:46:15.045Z,3.65
2023-04-29T08:48:55.940Z,4.38
2023-04-29T08:51:47.890Z,3.97
2023-04-29T08:54:22.008Z,2.92
2023-04-29T08:56:54.982Z,2.87
2023-04-29T09:02:04.765Z,3.90
2023-04-29T09:05:07.502Z,2.78
2023-04-29T09:08:26.347Z,2.78
2023-04-29T09:11:08.593Z,3.60
2023-04-29T09:13:39.768Z,3.30
2023-04-29T09:16:24.335Z,3.20
2023-04-29T09:18:57.075Z,3.47
2023-04-29T09:21:44.154Z,3.25
2023-04-29T09:24:46.025Z,2.55
2023-04-29T09:27:46.278Z,5.28
2023-04-29T09:30:17.003Z,4.03
2023-04-29T09:33:07.100Z,3.75
2023-04-29T09:35:44.650Z,3.80
2023-04-29T09:38:23.077Z,4.57
2023-04-29T09:40:59.913Z,3.60
2023-04-29T09:43:36.782Z,3.50
2023-04-29T09:46:16.761Z,4.00
2023-04-29T09:48:57.450Z,4.35
2023-04-29T09:51:32.911Z,4.32
2023-04-29T09:54:07.592Z,2.95
2023-04-29T09:57:06.907Z,5.18
2023-04-29T09:59:50.701Z,4.95
2023-04-29T10:02:26.118Z,2.67
2023-04-29T10:05:22.222Z,3.88
2023-04-29T10:07:58.953Z,4.72
2023-04-29T10:10:35.332Z,3.58
2023-04-29T10:13:07.574Z,4.72
2023-04-29T10:15:50.584Z,4.88
2023-04-29T10:18:39.383Z,5.88
2023-04-29T10:21:21.994Z,4.63
2023-04-29T10:24:11.778Z,6.00
2023-04-29T10:26:54.478Z,4.07
2023-04-29T10:29:39.658Z,5.07
2023-04-29T10:32:56.624Z,5.10
2023-04-29T10:35:58.015Z,4.40
2023-04-29T10:38:42.784Z,5.43
2023-04-29T10:41:54.739Z,3.95
2023-04-29T10:44:23.074Z,3.40
2023-04-29T10:47:24.638Z,4.15
2023-04-29T10:50:07.847Z,3.22
2023-04-29T10:53:05.115Z,3.60
2023-04-29T10:56:04.287Z,3.20
2023-04-29T10:58:46.380Z,4.57
2023-04-29T11:01:41.507Z,7.97
2023-04-29T11:07:03.159Z,5.03
2023-04-29T11:09:35.775Z,4.88
2023-04-29T11:12:15.001Z,4.38
2023-04-29T11:17:39.000Z,4.75
2023-04-29T11:20:21.278Z,4.85
2023-04-29T11:22:52.507Z,4.18
2023-04-29T11:25:22.881Z,4.60
2023-04-29T11:27:55.922Z,5.43
2023-04-29T11:30:30.277Z,3.80
2023-04-29T11:33:06.322Z,7.63
2023-04-29T11:35:44.796Z,5.07
2023-04-29T11:38:13.464Z,3.70
2023-04-29T11:40:51.142Z,2.92
2023-04-29T11:43:20.175Z,2.95
2023-04-29T11:45:49.410Z,3.38
2023-04-29T11:48:31.153Z,4.20
2023-04-29T11:53:30.681Z,4.70
2023-04-29T11:55:59.266Z,3.63
2023-04-29T11:58:27.423Z,5.22
2023-04-29T12:00:54.981Z,3.15
2023-04-29T12:03:23.793Z,2.72
2023-04-29T12:05:56.547Z,3.00
2023-04-29T12:08:28.830Z,4.60
2023-04-29T12:11:01.778Z,2.88
2023-04-29T12:13:31.160Z,2.03
2023-04-29T12:16:15.755Z,4.10
2023-04-29T12:18:54.901Z,5.78
2023-04-29T12:21:33.998Z,3.08
2023-04-29T12:24:10.501Z,2.95
2023-04-29T12:26:45.184Z,2.15
2023-04-29T12:29:15.571Z,3.05
2023-04-29T12:31:49.234Z,3.88
2023-04-29T12:34:31.994Z,2.80
2023-04-29T12:37:04.381Z,2.05
2023-04-29T12:39:42.321Z,2.60
2023-04-29T12:42:18.657Z,3.03
2023-04-29T12:45:00.899Z,1.40
2023-04-29T12:47:35.690Z,3.03
2023-04-29T12:50:05.643Z,3.90
2023-04-29T12:52:41.420Z,1.95
2023-04-29T12:55:20.928Z,2.40
2023-04-29T12:57:58.588Z,1.88
2023-04-29T13:00:29.933Z,3.20
2023-04-29T13:03:02.311Z,1.92
2023-04-29T13:05:36.405Z,6.22
2023-04-29T13:08:09.904Z,2.33
2023-04-29T13:10:58.695Z,1.92
2023-04-29T13:13:32.482Z,1.70
2023-04-29T13:16:14.128Z,3.00
2023-04-29T13:19:08.193Z,2.25
2023-04-29T13:21:44.749Z,3.03
2023-04-29T13:24:22.735Z,2.00
2023-04-29T13:26:57.555Z,2.65
2023-04-29T13:29:29.293Z,2.97
2023-04-29T13:32:10.673Z,3.45
2023-04-29T13:34:46.820Z,2.10
2023-04-29T13:37:32.032Z,4.72
2023-04-29T13:40:09.026Z,3.17
2023-04-29T13:42:47.233Z,2.72
2023-04-29T13:45:19.689Z,2.80
2023-04-29T13:48:05.944Z,2.97
2023-04-29T14:03:07.810Z,3.63
2023-04-29T14:05:35.778Z,4.00
2023-04-29T14:11:27.441Z,4.25
2023-04-29T14:13:54.232Z,2.50
2023-04-29T14:16:21.177Z,4.20
2023-04-29T14:18:49.165Z,3.30
2023-04-29T14:21:16.470Z,4.47
2023-04-29T14:23:50.395Z,3.05
2023-04-29T14:26:27.837Z,2.60
2023-04-29T14:29:02.078Z,2.13
2023-04-29T14:31:35.369Z,2.60
2023-04-29T14:34:33.209Z,2.40
2023-04-29T14:37:00.104Z,2.72
2023-04-29T14:39:27.488Z,3.63
2023-04-29T14:41:54.658Z,3.60
2023-04-29T14:44:21.519Z,4.43
2023-04-29T14:46:48.779Z,3.75
2023-04-29T14:49:15.783Z,3.78
2023-04-29T14:51:42.667Z,4.13
2023-04-29T14:54:12.486Z,3.10
2023-04-29T14:56:39.388Z,2.60
2023-04-29T14:59:09.424Z,4.40
2023-04-29T15:01:39.276Z,4.22
2023-04-29T15:04:11.154Z,4.97
2023-04-29T15:06:41.256Z,3.90
2023-04-29T15:09:16.464Z,5.97
2023-04-29T15:12:08.162Z,3.60
2023-04-29T15:14:37.635Z,4.93
2023-04-29T15:17:07.111Z,3.88
2023-04-29T15:19:36.530Z,3.90
2023-04-29T15:22:07.639Z,5.03
2023-04-29T15:24:36.753Z,5.85
2023-04-29T15:27:04.894Z,7.97
2023-04-29T15:29:35.114Z,5.78
2023-04-29T15:32:02.733Z,6.47
2023-04-29T15:34:30.270Z,7.03
2023-04-29T15:36:57.406Z,6.45
2023-04-29T15:39:24.381Z,7.38
2023-04-29T15:41:51.539Z,5.53
2023-04-29T15:44:18.368Z,7.35
2023-04-29T15:46:45.192Z,5.85
2023-04-29T15:49:12.488Z,5.95
2023-04-29T15:51:39.288Z,6.07
2023-04-29T15:54:07.283Z,5.75
2023-04-29T15:56:34.187Z,5.85
2023-04-29T15:59:01.982Z,5.25
2023-04-29T16:01:28.928Z,7.25
2023-04-29T16:03:56.823Z,5.22
2023-04-29T16:06:24.382Z,5.55
2023-04-29T16:08:51.214Z,6.80
2023-04-29T16:11:18.193Z,7.50
2023-04-29T16:13:45.934Z,5.47
2023-04-29T16:16:13.062Z,6.07
2023-04-29T16:18:39.976Z,5.88
2023-04-29T16:21:07.304Z,6.00
2023-04-29T16:23:34.167Z,6.25
2023-04-29T16:26:01.495Z,7.32
2023-04-29T16:28:28.380Z,6.70
2023-04-29T16:30:55.350Z,8.20
2023-04-29T16:33:22.322Z,7.05
2023-04-29T16:35:49.484Z,6.90
2023-04-29T16:38:16.537Z,7.55
2023-04-29T16:40:43.567Z,5.50
2023-04-29T16:43:14.304Z,6.78
2023-04-29T16:45:44.228Z,7.07
2023-04-29T16:48:11.326Z,9.07
2023-04-29T16:50:38.520Z,8.60
2023-04-29T16:53:07.872Z,7.53
2023-04-29T16:55:34.669Z,5.90
2023-04-29T16:58:01.550Z,6.85
2023-04-29T17:00:28.805Z,7.32
2023-04-29T17:06:05.528Z,8.75
2023-04-29T17:09:23.578Z,6.78
2023-04-29T17:19:15.165Z,10.23
2023-04-29T17:27:45.074Z,8.02
2023-04-29T17:30:13.349Z,8.15
2023-04-29T17:32:45.679Z,7.72
2023-04-29T17:35:12.563Z,12.90
2023-04-29T17:49:49.000Z,9.55
2023-04-29T17:52:21.220Z,10.30
2023-04-29T17:54:48.944Z,9.35
2023-04-29T17:57:15.895Z,9.13
2023-04-29T17:59:43.171Z,10.10
2023-04-29T18:02:10.275Z,11.13
2023-04-29T18:04:48.604Z,11.15
2023-04-29T18:07:15.722Z,9.93
2023-04-29T18:09:42.850Z,11.05
2023-04-29T18:12:09.930Z,10.13
2023-04-29T18:14:39.202Z,10.40
2023-04-29T18:17:10.724Z,9.82
2023-04-29T18:19:37.671Z,11.75
2023-04-29T18:22:04.650Z,11.18
2023-04-29T18:24:31.898Z,12.20
2023-04-29T18:26:59.150Z,10.65
2023-04-29T18:29:26.172Z,10.73
2023-04-29T18:31:54.948Z,11.48
2023-04-29T18:34:22.068Z,10.18
2023-04-29T18:36:49.431Z,10.90
2023-04-29T18:39:16.482Z,11.65
2023-04-29T18:41:43.763Z,12.13
2023-04-29T18:44:11.466Z,12.85
2023-04-29T18:46:38.677Z,14.18
2023-04-29T18:49:05.881Z,12.95
2023-04-29T18:51:33.401Z,13.30
2023-04-29T18:54:00.591Z,12.93
2023-04-29T18:56:27.601Z,12.32
2023-04-29T18:58:54.576Z,13.35
2023-04-29T19:01:21.737Z,13.15
2023-04-29T19:03:48.819Z,12.98
2023-04-29T19:06:15.865Z,13.18
2023-04-29T19:08:43.068Z,13.60
2023-04-29T19:11:09.991Z,13.60
2023-04-29T19:13:37.299Z,16.40
2023-04-29T19:16:04.535Z,12.38
2023-04-29T19:18:31.780Z,12.35
2023-04-29T19:20:58.913Z,14.27
2023-04-29T19:23:25.918Z,13.32
2023-04-29T19:25:53.020Z,13.57
2023-04-29T19:28:20.001Z,12.55
2023-04-29T19:30:47.118Z,12.68
2023-04-29T19:33:15.422Z,13.32
2023-04-29T19:35:42.727Z,14.63
2023-04-29T19:38:10.017Z,17.42
2023-04-29T19:40:36.997Z,12.32
2023-04-29T19:43:04.000Z,11.70
2023-04-29T19:45:33.244Z,16.70
2023-04-29T19:48:02.186Z,14.57
2023-04-29T19:50:29.640Z,13.82
2023-04-29T19:52:56.704Z,13.18
2023-04-29T19:55:23.688Z,16.33
2023-04-29T19:57:52.645Z,17.52
2023-04-29T20:00:19.826Z,15.05
2023-04-29T20:02:50.782Z,17.27
2023-04-29T20:05:18.069Z,12.77
2023-04-29T20:07:47.139Z,13.57
2023-04-29T20:10:14.785Z,12.48
2023-04-29T20:12:42.213Z,14.02
2023-04-29T20:15:12.285Z,14.05
2023-04-29T20:17:40.758Z,13.00
2023-04-29T20:20:09.082Z,15.55
2023-04-29T20:22:36.397Z,14.65
2023-04-29T20:25:04.885Z,13.02
2023-04-29T20:27:32.842Z,16.45
2023-04-29T20:30:00.920Z,12.25
2023-04-29T20:32:27.998Z,14.15
2023-04-29T20:34:56.331Z,15.07
2023-04-29T20:37:24.910Z,13.30
2023-04-29T20:39:52.471Z,12.00
2023-04-29T20:42:20.454Z,12.82
2023-04-29T20:44:47.896Z,13.15
2023-04-29T20:47:15.291Z,13.48
2023-04-29T20:49:42.723Z,16.20
2023-04-29T20:52:09.730Z,16.48
2023-04-29T20:54:40.195Z,15.32
2023-04-29T20:57:07.313Z,14.88
2023-04-29T20:59:34.427Z,15.23
2023-04-29T21:02:01.718Z,15.60
2023-04-29T21:04:28.867Z,13.45
2023-04-29T21:07:03.782Z,14.98
2023-04-29T21:09:45.683Z,12.18
2023-04-29T21:12:14.931Z,15.85
2023-04-29T21:15:05.008Z,11.63
2023-04-29T21:17:32.107Z,12.45
2023-04-29T21:19:59.248Z,13.43
2023-04-29T21:22:26.212Z,10.88
2023-04-29T21:24:56.274Z,13.63
2023-04-29T21:27:23.227Z,11.90
2023-04-29T21:29:50.292Z,11.13
2023-04-29T21:32:21.624Z,12.07
2023-04-29T21:34:52.023Z,11.77
2023-04-29T21:37:19.216Z,11.10
2023-04-29T21:39:46.298Z,14.75
2023-04-29T21:42:14.546Z,13.05
2023-04-29T21:44:41.677Z,11.57
2023-04-29T21:47:09.129Z,13.10
2023-04-29T21:49:36.634Z,11.30
2023-04-29T21:52:05.859Z,12.80
2023-04-29T21:54:33.774Z,13.57
2023-04-29T21:57:03.256Z,11.05
2023-04-29T21:59:34.497Z,10.55
2023-04-29T22:02:04.717Z,11.32
2023-04-29T22:04:31.965Z,10.77
2023-04-29T22:06:59.127Z,11.45
2023-04-29T22:09:26.284Z,13.25
2023-04-29T22:11:53.410Z,11.85
2023-04-29T22:14:20.534Z,12.60
2023-04-29T22:16:47.859Z,11.55
2023-04-29T22:19:14.953Z,12.38
2023-04-29T22:21:43.192Z,11.40
2023-04-29T22:24:10.581Z,11.38
2023-04-29T22:26:37.586Z,12.27
2023-04-29T22:29:04.911Z,13.93
2023-04-29T22:31:32.013Z,10.25
2023-04-29T22:33:59.242Z,10.73
2023-04-29T22:36:27.393Z,12.05
2023-04-29T22:38:54.946Z,11.90
2023-04-29T22:41:22.254Z,14.00
2023-04-29T22:43:49.227Z,12.05
2023-04-29T22:46:16.166Z,11.88
2023-04-29T22:48:43.149Z,12.45
2023-04-29T22:51:10.261Z,11.63
2023-04-29T22:53:37.412Z,11.63
2023-04-29T22:56:04.700Z,11.43
2023-04-29T22:58:33.765Z,11.77
2023-04-29T23:01:01.338Z,12.18
2023-04-29T23:03:28.353Z,11.90
2023-04-29T23:05:59.726Z,11.85
2023-04-29T23:08:27.507Z,11.45
2023-04-29T23:10:54.646Z,11.77
2023-04-29T23:13:21.625Z,11.95
2023-04-29T23:15:48.614Z,12.65
2023-04-29T23:18:15.806Z,12.77
2023-04-29T23:20:47.893Z,12.43
2023-04-29T23:23:14.998Z,11.90
2023-04-29T23:25:42.632Z,11.57
2023-04-29T23:28:09.623Z,13.68
2023-04-29T23:30:36.657Z,11.65
2023-04-29T23:33:03.773Z,12.85
2023-04-29T23:35:31.779Z,12.13
2023-04-29T23:37:59.215Z,13.63
2023-04-29T23:40:26.483Z,11.85
2023-04-29T23:42:53.582Z,12.82
2023-04-29T23:45:21.011Z,13.20
2023-04-29T23:47:48.205Z,11.50
2023-04-29T23:50:15.370Z,11.77
2023-04-29T23:52:42.391Z,14.27
2023-04-29T23:55:10.084Z,13.07
2023-04-29T23:57:37.369Z,12.70
